createdAt,value
2018-03-11T00:02:18.991Z,12.00
2018-03-11T00:04:46.600Z,10.53
2018-03-11T00:07:14.969Z,13.43
2018-03-11T00:09:42.563Z,13.23
2018-03-11T00:12:10.850Z,10.07
2018-03-11T00:14:38.454Z,9.80
2018-03-11T00:17:06.015Z,9.67
2018-03-11T00:19:33.651Z,9.60
2018-03-11T00:22:01.273Z,8.33
2018-03-11T00:24:28.873Z,11.30
2018-03-11T00:26:56.492Z,9.77
2018-03-11T00:29:24.104Z,10.10
2018-03-11T00:31:51.642Z,10.40
2018-03-11T00:34:19.252Z,11.00
2018-03-11T00:36:46.913Z,11.97
2018-03-11T00:39:14.563Z,11.67
2018-03-11T00:41:42.133Z,13.03
2018-03-11T00:44:10.537Z,12.67
2018-03-11T00:46:38.903Z,13.40
2018-03-11T00:49:07.305Z,12.40
2018-03-11T00:51:34.883Z,13.17
2018-03-11T00:54:02.479Z,12.57
2018-03-11T00:56:30.062Z,11.63
2018-03-11T00:58:58.431Z,14.07
2018-03-11T01:01:26.787Z,15.17
2018-03-11T01:03:54.414Z,13.93
2018-03-11T01:06:22.010Z,14.20
2018-03-11T01:08:49.588Z,13.00
2018-03-11T01:11:17.919Z,14.13
2018-03-11T01:13:45.534Z,15.80
2018-03-11T01:16:13.899Z,13.63
2018-03-11T01:18:42.262Z,14.10
2018-03-11T01:21:09.906Z,18.30
2018-03-11T01:23:37.513Z,14.53
2018-03-11T01:26:05.899Z,15.10
2018-03-11T01:28:33.517Z,15.33
2018-03-11T01:31:01.170Z,18.00
2018-03-11T01:33:28.806Z,18.13
2018-03-11T01:35:56.411Z,17.30
2018-03-11T01:38:23.977Z,19.50
2018-03-11T01:40:52.352Z,19.67
2018-03-11T01:43:19.989Z,24.73
2018-03-11T01:45:47.625Z,23.60
2018-03-11T01:48:15.235Z,22.83
2018-03-11T01:50:42.800Z,23.50
2018-03-11T01:53:10.409Z,27.70
2018-03-11T01:55:38.031Z,26.07
2018-03-11T01:58:06.392Z,25.58
2018-03-11T02:00:33.996Z,26.97
2018-03-11T02:03:01.594Z,22.67
2018-03-11T02:05:29.224Z,23.62
2018-03-11T02:07:56.802Z,18.33
2018-03-11T02:10:24.387Z,18.70
2018-03-11T02:12:51.964Z,20.08
2018-03-11T02:15:19.584Z,19.47
2018-03-11T02:17:47.188Z,24.37
2018-03-11T02:20:15.530Z,20.30
2018-03-11T02:22:43.087Z,20.40
2018-03-11T02:25:10.724Z,20.80
2018-03-11T02:27:38.359Z,17.23
2018-03-11T02:30:06.785Z,16.40
2018-03-11T02:32:34.423Z,18.77
2018-03-11T02:35:02.050Z,16.70
2018-03-11T02:37:30.423Z,17.00
2018-03-11T02:39:58.763Z,23.50
2018-03-11T02:42:26.339Z,26.20
2018-03-11T02:44:53.960Z,25.85
2018-03-11T02:47:21.574Z,21.85
2018-03-11T02:49:49.149Z,25.35
2018-03-11T02:52:17.475Z,30.40
2018-03-11T02:54:45.082Z,27.67
2018-03-11T02:57:13.426Z,29.40
2018-03-11T02:59:41.076Z,33.25
2018-03-11T03:02:08.660Z,34.63
2018-03-11T03:04:36.268Z,37.80
2018-03-11T03:07:03.889Z,39.65
2018-03-11T03:09:31.492Z,48.15
2018-03-11T03:11:59.108Z,49.83
2018-03-11T03:14:26.731Z,55.38
2018-03-11T03:16:54.307Z,64.45
2018-03-11T03:19:21.914Z,76.62
2018-03-11T03:21:50.255Z,70.00
2018-03-11T03:24:17.879Z,64.70
2018-03-11T03:26:45.469Z,60.15
2018-03-11T03:29:13.051Z,65.03
2018-03-11T03:31:41.427Z,76.68
2018-03-11T03:34:09.052Z,71.22
2018-03-11T03:36:36.691Z,77.22
2018-03-11T03:39:04.259Z,77.97
2018-03-11T03:41:31.881Z,87.30
2018-03-11T03:44:00.242Z,85.75
2018-03-11T03:46:27.855Z,90.12
2018-03-11T03:48:55.426Z,87.72
2018-03-11T03:51:22.992Z,76.93
2018-03-11T03:53:50.559Z,87.62
2018-03-11T03:56:18.120Z,84.20
2018-03-11T03:58:45.699Z,100.80
2018-03-11T04:01:13.321Z,107.97
2018-03-11T04:03:40.952Z,125.78
2018-03-11T04:06:08.559Z,110.88
2018-03-11T04:08:36.152Z,104.82
2018-03-11T04:11:03.767Z,89.93
2018-03-11T04:13:31.389Z,84.57
2018-03-11T04:15:59.836Z,83.57
2018-03-11T04:18:27.430Z,86.22
2018-03-11T04:20:55.790Z,92.88
2018-03-11T04:23:24.166Z,101.43
2018-03-11T04:25:51.782Z,111.03
2018-03-11T04:28:19.450Z,118.37
2018-03-11T04:30:47.071Z,99.30
2018-03-11T04:33:15.407Z,76.30
2018-03-11T04:35:43.015Z,83.85
2018-03-11T04:38:10.598Z,94.45
2018-03-11T04:40:38.196Z,84.40
2018-03-11T04:43:05.783Z,73.10
2018-03-11T04:45:34.192Z,77.22
2018-03-11T04:48:01.742Z,81.47
2018-03-11T04:50:29.315Z,93.55
2018-03-11T04:52:56.951Z,118.50
2018-03-11T04:55:24.531Z,112.47
2018-03-11T04:57:52.151Z,101.50
2018-03-11T05:00:20.560Z,102.53
2018-03-11T05:02:48.166Z,110.53
2018-03-11T05:05:15.739Z,103.05
2018-03-11T05:07:43.380Z,101.80
2018-03-11T05:10:11.684Z,103.93
2018-03-11T05:12:39.268Z,87.65
2018-03-11T05:15:06.876Z,83.20
2018-03-11T05:17:34.487Z,76.12
2018-03-11T05:20:02.811Z,82.97
2018-03-11T05:22:30.445Z,79.47
2018-03-11T05:24:57.998Z,64.87
2018-03-11T05:27:25.976Z,72.35
2018-03-11T05:43:27.695Z,95.80
2018-03-11T05:45:55.984Z,89.95
2018-03-11T05:51:25.150Z,77.45
2018-03-11T05:53:52.684Z,58.33
2018-03-11T05:56:20.295Z,58.15
2018-03-11T05:58:48.651Z,58.38
2018-03-11T06:01:22.944Z,57.35
2018-03-11T06:03:50.551Z,90.47
2018-03-11T06:06:20.167Z,81.63
2018-03-11T06:08:48.551Z,106.75
2018-03-11T06:11:17.722Z,122.57
2018-03-11T06:13:45.330Z,87.12
2018-03-11T06:16:12.926Z,106.12
2018-03-11T06:18:49.086Z,132.55
2018-03-11T06:21:16.700Z,132.15
2018-03-11T06:23:44.278Z,158.35
2018-03-11T06:26:11.860Z,118.37
2018-03-11T06:28:39.486Z,125.80
2018-03-11T06:31:07.145Z,116.90
2018-03-11T06:33:34.739Z,95.62
2018-03-11T06:42:01.361Z,55.28
2018-03-11T06:44:29.719Z,44.40
2018-03-11T06:46:58.110Z,49.33
2018-03-11T06:49:25.719Z,36.58
2018-03-11T06:51:53.351Z,37.08
2018-03-11T06:54:20.936Z,42.25
2018-03-11T06:56:48.543Z,40.20
2018-03-11T06:59:16.107Z,48.78
2018-03-11T07:02:02.299Z,62.95
2018-03-11T07:04:29.928Z,58.50
2018-03-11T07:06:57.538Z,50.30
2018-03-11T07:09:25.899Z,47.25
2018-03-11T07:12:14.086Z,40.45
2018-03-11T07:20:39.539Z,35.83
2018-03-11T07:23:07.141Z,34.28
2018-03-11T07:25:41.359Z,34.03
2018-03-11T07:28:08.972Z,31.35
2018-03-11T07:30:36.628Z,32.13
2018-03-11T07:33:04.229Z,32.60
2018-03-11T07:35:31.876Z,27.50
2018-03-11T07:37:59.487Z,26.08
2018-03-11T07:40:27.841Z,27.83
2018-03-11T07:42:55.451Z,25.60
2018-03-11T07:45:23.071Z,25.80
2018-03-11T07:47:52.014Z,24.05
2018-03-11T07:50:19.598Z,25.13
2018-03-11T07:52:47.163Z,22.70
2018-03-11T07:55:14.801Z,20.80
2018-03-11T07:57:42.427Z,17.97
2018-03-11T08:00:10.881Z,15.53
2018-03-11T08:02:38.503Z,16.00
2018-03-11T08:05:06.157Z,15.97
2018-03-11T08:07:33.787Z,18.27
2018-03-11T08:10:01.395Z,16.70
2018-03-11T08:12:28.982Z,16.30
2018-03-11T08:14:56.583Z,18.20
2018-03-11T08:17:24.193Z,17.27
2018-03-11T08:19:51.832Z,19.80
2018-03-11T08:22:20.167Z,19.50
2018-03-11T08:24:50.041Z,22.43
2018-03-11T08:27:17.685Z,23.30
2018-03-11T08:29:45.316Z,23.63
2018-03-11T08:32:12.942Z,23.40
2018-03-11T08:34:40.526Z,25.53
2018-03-11T08:37:08.188Z,33.23
2018-03-11T08:39:35.835Z,30.00
2018-03-11T08:42:04.191Z,25.70
2018-03-11T08:44:31.782Z,23.40
2018-03-11T08:47:00.161Z,27.13
2018-03-11T08:49:34.423Z,26.00
2018-03-11T08:52:02.003Z,23.60
2018-03-11T08:54:29.671Z,21.77
2018-03-11T08:56:57.256Z,18.90
2018-03-11T08:59:25.656Z,21.70
2018-03-11T09:01:53.229Z,15.93
2018-03-11T09:04:20.883Z,19.93
2018-03-11T09:06:48.486Z,15.70
2018-03-11T09:09:16.111Z,21.47
2018-03-11T09:11:45.455Z,20.20
2018-03-11T09:14:13.085Z,20.23
2018-03-11T09:16:40.720Z,22.00
2018-03-11T09:19:08.294Z,10.40
2018-03-11T09:21:36.704Z,8.10
2018-03-11T09:24:04.319Z,6.70
2018-03-11T09:26:31.927Z,7.20
2018-03-11T09:28:59.512Z,6.53
2018-03-11T09:31:49.409Z,8.23
2018-03-11T09:34:17.890Z,6.13
2018-03-11T09:36:45.506Z,5.30
2018-03-11T09:39:13.075Z,5.37
2018-03-11T09:41:40.662Z,5.00
2018-03-11T09:44:09.058Z,4.73
2018-03-11T09:46:36.680Z,4.03
2018-03-11T09:52:00.482Z,4.07
2018-03-11T09:54:28.114Z,4.47
2018-03-11T09:56:55.780Z,3.63
2018-03-11T09:59:23.379Z,3.30
2018-03-11T10:01:51.746Z,2.73
2018-03-11T10:04:20.183Z,3.83
2018-03-11T10:06:47.745Z,3.33
2018-03-11T10:09:15.308Z,4.47
2018-03-11T10:11:42.857Z,5.00
2018-03-11T10:14:10.479Z,4.20
2018-03-11T10:16:38.136Z,4.30
2018-03-11T10:19:05.765Z,4.93
2018-03-11T10:21:33.332Z,4.60
2018-03-11T10:24:00.898Z,4.37
2018-03-11T10:26:28.539Z,4.93
2018-03-11T10:28:56.140Z,3.90
2018-03-11T10:31:23.759Z,5.57
2018-03-11T10:33:51.340Z,3.97
2018-03-11T10:36:18.926Z,7.20
2018-03-11T10:38:49.361Z,3.70
2018-03-11T10:41:16.997Z,3.93
2018-03-11T10:43:45.361Z,4.30
2018-03-11T10:46:12.981Z,3.20
2018-03-11T10:48:40.603Z,3.60
2018-03-11T10:51:08.988Z,2.93
2018-03-11T10:53:37.403Z,6.20
2018-03-11T10:56:05.033Z,2.50
2018-03-11T10:58:33.386Z,2.60
2018-03-11T11:01:06.504Z,3.70
2018-03-11T11:03:34.077Z,3.10
2018-03-11T11:06:02.484Z,2.40
2018-03-11T11:08:30.094Z,2.67
2018-03-11T11:10:58.459Z,3.33
2018-03-11T11:13:26.111Z,2.80
2018-03-11T11:15:53.680Z,3.20
2018-03-11T11:18:22.076Z,2.63
2018-03-11T11:20:50.481Z,4.90
2018-03-11T11:23:18.091Z,3.10
2018-03-11T11:25:46.885Z,2.17
2018-03-11T11:28:14.447Z,2.23
2018-03-11T11:30:42.852Z,2.43
2018-03-11T11:33:10.462Z,2.23
2018-03-11T11:35:38.088Z,2.80
2018-03-11T11:38:05.658Z,2.37
2018-03-11T11:40:33.306Z,2.00
2018-03-11T11:43:02.074Z,2.00
2018-03-11T11:45:29.691Z,1.90
2018-03-11T11:47:57.261Z,1.67
2018-03-11T11:50:24.871Z,1.83
2018-03-11T11:52:56.430Z,2.20
2018-03-11T11:55:24.027Z,1.93
2018-03-11T11:57:51.607Z,2.20
2018-03-11T12:00:19.236Z,1.70
2018-03-11T12:02:46.871Z,1.70
2018-03-11T12:05:14.459Z,4.80
2018-03-11T12:07:42.071Z,1.77
2018-03-11T12:10:09.644Z,1.80
2018-03-11T12:12:37.211Z,1.80
2018-03-11T12:15:04.829Z,1.83
2018-03-11T12:17:33.392Z,2.73
2018-03-11T12:20:01.021Z,1.77
2018-03-11T12:22:28.646Z,2.60
2018-03-11T12:25:00.496Z,1.80
2018-03-11T12:27:28.859Z,1.50
2018-03-11T12:34:32.196Z,1.83
2018-03-11T12:37:00.494Z,2.30
2018-03-11T12:39:28.017Z,2.27
2018-03-11T12:41:55.547Z,5.13
2018-03-11T12:44:33.370Z,2.83
2018-03-11T12:47:01.894Z,1.93
2018-03-11T12:49:29.482Z,1.80
2018-03-11T12:51:57.071Z,2.20
2018-03-11T12:54:24.662Z,2.37
2018-03-11T12:56:52.991Z,2.43
2018-03-11T12:59:20.588Z,3.37
2018-03-11T13:01:48.946Z,3.03
2018-03-11T13:04:17.352Z,3.03
2018-03-11T13:06:45.699Z,4.57
2018-03-11T13:09:13.271Z,1.77
2018-03-11T13:11:40.897Z,1.83
2018-03-11T13:14:08.556Z,3.37
2018-03-11T13:16:38.138Z,2.33
2018-03-11T13:19:05.739Z,2.07
2018-03-11T13:21:33.333Z,2.40
2018-03-11T13:24:01.688Z,3.57
2018-03-11T13:26:31.263Z,2.10
2018-03-11T13:28:58.852Z,2.23
2018-03-11T13:31:26.421Z,2.60
2018-03-11T13:34:20.542Z,3.43
2018-03-11T13:36:48.200Z,3.30
2018-03-11T13:39:27.583Z,4.03
2018-03-11T13:41:55.152Z,3.47
2018-03-11T13:44:22.728Z,2.60
2018-03-11T13:47:11.044Z,2.93
2018-03-11T13:49:38.674Z,9.03
2018-03-11T13:52:18.085Z,3.83
2018-03-11T13:54:46.466Z,16.30
2018-03-11T14:00:26.968Z,5.13
2018-03-11T14:02:54.516Z,5.90
2018-03-11T14:05:22.062Z,5.13
2018-03-11T14:07:50.356Z,4.20
2018-03-11T14:10:17.872Z,5.03
2018-03-11T14:12:45.420Z,7.03
2018-03-11T14:15:12.981Z,4.30
2018-03-11T14:17:40.593Z,8.23
2018-03-11T14:20:08.169Z,6.33
2018-03-11T14:22:39.533Z,6.10
2018-03-11T14:25:07.112Z,5.50
2018-03-11T14:27:34.757Z,9.70
2018-03-11T14:30:02.363Z,3.47
2018-03-11T14:32:29.982Z,5.30
2018-03-11T14:34:57.591Z,4.10
2018-03-11T14:37:25.940Z,6.13
2018-03-11T14:39:53.534Z,5.97
2018-03-11T14:42:21.121Z,4.67
2018-03-11T14:44:48.714Z,5.90
2018-03-11T14:47:16.343Z,4.30
2018-03-11T14:49:43.938Z,6.50
2018-03-11T14:52:12.087Z,4.50
2018-03-11T14:54:39.725Z,4.90
2018-03-11T14:57:07.280Z,4.53
2018-03-11T14:59:34.867Z,5.47
2018-03-11T15:02:02.448Z,5.67
2018-03-11T15:04:30.031Z,5.77
2018-03-11T15:06:58.407Z,6.93
2018-03-11T15:09:26.767Z,5.13
2018-03-11T15:11:54.379Z,8.90
2018-03-11T15:14:21.969Z,3.43
2018-03-11T15:16:49.579Z,3.70
2018-03-11T15:19:17.176Z,3.37
2018-03-11T15:21:44.797Z,3.73
2018-03-11T15:24:12.403Z,3.93
2018-03-11T15:26:40.005Z,4.77
2018-03-11T15:29:08.363Z,7.47
2018-03-11T15:31:35.975Z,6.13
2018-03-11T15:34:03.569Z,5.20
2018-03-11T15:36:31.189Z,6.30
2018-03-11T15:38:58.780Z,4.53
2018-03-11T15:41:26.388Z,5.70
2018-03-11T15:43:53.975Z,6.93
2018-03-11T15:46:21.595Z,7.70
2018-03-11T15:48:49.162Z,5.17
2018-03-11T15:51:16.794Z,5.37
2018-03-11T15:53:44.407Z,6.23
2018-03-11T15:56:12.027Z,4.77
2018-03-11T15:58:39.657Z,7.37
2018-03-11T16:01:08.044Z,14.43
2018-03-11T16:03:35.680Z,11.90
2018-03-11T16:09:02.860Z,10.10
2018-03-11T16:11:30.433Z,15.67
2018-03-11T16:13:58.098Z,12.10
2018-03-11T16:16:25.738Z,10.90
2018-03-11T16:18:53.353Z,9.97
2018-03-11T16:21:21.012Z,13.63
2018-03-11T16:23:48.643Z,9.73
2018-03-11T16:26:16.241Z,9.80
2018-03-11T16:28:44.609Z,9.33
2018-03-11T16:31:13.145Z,11.30
2018-03-11T16:33:40.737Z,18.10
2018-03-11T16:36:08.392Z,12.03
2018-03-11T16:38:36.021Z,11.90
2018-03-11T16:41:03.596Z,13.10
2018-03-11T16:43:31.165Z,20.27
2018-03-11T16:45:58.777Z,17.33
2018-03-11T16:48:27.154Z,12.50
2018-03-11T16:50:55.566Z,11.17
2018-03-11T16:53:23.122Z,8.60
2018-03-11T16:55:50.711Z,12.63
2018-03-11T16:58:18.300Z,11.17
2018-03-11T17:00:46.803Z,7.53
2018-03-11T17:03:14.428Z,7.97
2018-03-11T17:05:43.003Z,9.40
2018-03-11T17:08:10.609Z,8.30
2018-03-11T17:10:41.269Z,9.33
2018-03-11T17:13:08.905Z,7.60
2018-03-11T17:15:38.437Z,8.93
2018-03-11T17:18:06.023Z,9.13
2018-03-11T17:20:33.655Z,9.03
2018-03-11T17:23:01.250Z,11.87
2018-03-11T17:25:28.850Z,16.03
2018-03-11T17:27:56.459Z,12.73
2018-03-11T17:30:24.076Z,13.13
2018-03-11T17:32:51.713Z,15.10
2018-03-11T17:35:19.263Z,13.03
2018-03-11T17:37:47.618Z,11.30
2018-03-11T17:40:15.183Z,11.33
2018-03-11T17:42:42.802Z,14.63
2018-03-11T17:45:10.383Z,9.67
2018-03-11T17:47:37.970Z,10.53
2018-03-11T17:50:05.583Z,8.60
2018-03-11T17:52:34.792Z,7.80
2018-03-11T17:55:02.427Z,7.23
2018-03-11T17:57:30.015Z,9.77
2018-03-11T17:59:57.643Z,7.27
2018-03-11T18:02:25.245Z,7.30
2018-03-11T18:04:52.851Z,5.80
2018-03-11T18:07:21.200Z,6.73
2018-03-11T18:09:48.812Z,7.40
2018-03-11T18:12:16.421Z,6.60
2018-03-11T18:14:44.038Z,9.17
2018-03-11T18:17:11.679Z,7.60
2018-03-11T18:19:40.045Z,8.37
2018-03-11T18:22:08.444Z,8.90
2018-03-11T18:24:37.972Z,8.40
2018-03-11T18:27:05.560Z,8.87
2018-03-11T18:29:33.172Z,7.13
2018-03-11T18:32:11.071Z,9.63
2018-03-11T18:34:38.682Z,6.80
2018-03-11T18:37:08.196Z,7.13
2018-03-11T18:39:35.842Z,4.97
2018-03-11T18:42:03.463Z,4.10
2018-03-11T18:44:42.806Z,3.83
2018-03-11T18:50:05.227Z,3.27
2018-03-11T18:52:57.063Z,4.07
2018-03-11T18:55:25.435Z,8.40
2018-03-11T18:57:53.772Z,4.30
2018-03-11T19:00:21.374Z,5.33
2018-03-11T19:02:49.761Z,5.80
2018-03-11T19:05:18.128Z,7.13
2018-03-11T19:07:45.725Z,5.83
2018-03-11T19:10:13.295Z,4.83
2018-03-11T19:12:45.573Z,3.77
2018-03-11T19:15:13.201Z,9.10
2018-03-11T19:17:40.812Z,4.50
2018-03-11T19:20:08.399Z,6.47
2018-03-11T19:22:36.012Z,4.37
2018-03-11T19:25:03.600Z,7.13
2018-03-11T19:27:31.242Z,4.67
2018-03-11T19:29:58.815Z,4.13
2018-03-11T19:32:26.438Z,3.93
2018-03-11T19:34:54.021Z,5.60
2018-03-11T19:37:21.638Z,4.33
2018-03-11T19:39:50.078Z,3.30
2018-03-11T19:42:17.658Z,3.10
2018-03-11T19:44:45.281Z,3.10
2018-03-11T19:47:12.857Z,2.80
2018-03-11T19:50:04.520Z,4.73
2018-03-11T19:52:32.884Z,5.60
2018-03-11T19:55:00.484Z,6.83
2018-03-11T19:57:28.055Z,5.03
2018-03-11T19:59:55.622Z,6.20
2018-03-11T20:02:23.291Z,3.87
2018-03-11T20:04:50.917Z,4.10
2018-03-11T20:07:18.487Z,4.30
2018-03-11T20:09:46.109Z,8.33
2018-03-11T20:12:13.710Z,11.47
2018-03-11T20:14:41.268Z,21.40
2018-03-11T20:17:08.881Z,27.90
2018-03-11T20:19:36.506Z,22.37
2018-03-11T20:22:04.156Z,38.73
2018-03-11T20:24:31.801Z,73.10
2018-03-11T20:26:59.421Z,23.50
2018-03-11T20:29:26.993Z,24.03
2018-03-11T20:31:55.387Z,21.80
2018-03-11T20:37:36.810Z,8.50
2018-03-11T20:40:04.360Z,9.93
2018-03-11T20:42:31.940Z,8.73
2018-03-11T20:44:59.523Z,9.40
2018-03-11T20:47:27.136Z,8.10
2018-03-11T20:49:54.692Z,9.87
2018-03-11T20:52:22.255Z,6.97
2018-03-11T20:54:49.898Z,11.27
2018-03-11T20:57:17.511Z,9.83
2018-03-11T20:59:45.106Z,15.07
2018-03-11T21:02:12.725Z,18.20
2018-03-11T21:04:40.333Z,13.63
2018-03-11T21:07:08.726Z,13.80
2018-03-11T21:09:37.082Z,13.57
2018-03-11T21:12:04.655Z,14.70
2018-03-11T21:14:33.083Z,13.60
2018-03-11T21:17:00.723Z,13.67
2018-03-11T21:19:28.351Z,16.10
2018-03-11T21:21:55.974Z,20.10
2018-03-11T21:24:23.592Z,19.43
2018-03-11T21:26:51.710Z,18.03
2018-03-11T21:29:19.280Z,23.00
2018-03-11T21:31:46.872Z,17.73
2018-03-11T21:34:15.207Z,15.03
2018-03-11T21:36:42.788Z,18.10
2018-03-11T21:39:21.016Z,19.30
2018-03-11T21:41:49.351Z,17.70
2018-03-11T21:44:16.995Z,20.60
2018-03-11T21:46:44.598Z,20.07
2018-03-11T21:49:12.216Z,19.70
2018-03-11T21:51:39.857Z,18.73
2018-03-11T21:54:07.427Z,25.77
2018-03-11T21:56:35.028Z,23.33
2018-03-11T21:59:02.637Z,20.60
2018-03-11T22:01:30.247Z,23.27
2018-03-11T22:03:57.874Z,22.63
2018-03-11T22:06:26.116Z,18.97
2018-03-11T22:08:54.497Z,26.50
2018-03-11T22:11:22.843Z,24.73
2018-03-11T22:13:50.456Z,21.33
2018-03-11T22:16:18.019Z,30.50
2018-03-11T22:18:45.644Z,43.00
2018-03-11T22:21:13.325Z,44.00
2018-03-11T22:23:41.654Z,46.47
2018-03-11T22:26:09.263Z,46.53
2018-03-11T22:28:37.656Z,37.73
2018-03-11T22:31:05.238Z,36.23
2018-03-11T22:33:32.843Z,34.87
2018-03-11T22:36:00.463Z,34.60
2018-03-11T22:38:28.112Z,36.20
2018-03-11T22:40:55.684Z,24.10
2018-03-11T22:43:23.284Z,29.23
2018-03-11T22:45:50.878Z,28.20
2018-03-11T22:48:18.466Z,26.17
2018-03-11T22:50:46.975Z,25.00
2018-03-11T22:53:14.626Z,23.53
2018-03-11T22:55:42.255Z,20.40
2018-03-11T22:58:09.862Z,19.47
2018-03-11T23:00:37.453Z,22.60
2018-03-11T23:03:05.106Z,20.37
2018-03-11T23:05:33.467Z,24.60
2018-03-11T23:08:01.091Z,28.70
2018-03-11T23:10:28.648Z,32.23
2018-03-11T23:12:59.240Z,31.53
2018-03-11T23:15:26.822Z,33.17
2018-03-11T23:17:54.394Z,39.93
2018-03-11T23:20:22.004Z,48.13
2018-03-11T23:22:50.331Z,54.30
2018-03-11T23:25:17.989Z,48.73
2018-03-11T23:27:45.567Z,49.03
2018-03-11T23:30:13.159Z,44.33
2018-03-11T23:32:40.752Z,45.60
2018-03-11T23:35:08.308Z,38.57
2018-03-11T23:37:35.880Z,37.53
2018-03-11T23:40:03.475Z,30.23
2018-03-11T23:42:31.084Z,25.93
2018-03-11T23:44:58.663Z,23.83
2018-03-11T23:47:26.309Z,22.93
2018-03-11T23:49:53.926Z,18.67
2018-03-11T23:52:21.512Z,22.90
2018-03-11T23:54:49.871Z,17.47
2018-03-11T23:57:17.478Z,18.50
2018-03-11T23:59:45.871Z,18.23
